<<    September 2010    >>
Datum    Temp.       Tempmin      Tempmax    Taup.       Taup.min      Taup.max    Feuchte    Feuchtemin    Feuchtemax    Druck    Druckmin    Druckmax    Regen    Wind    Benmax  
  01.09.2010  14,1    8,9    06:58    19,4    13:45  9,3    7,5    15:07    12,5    10:16  75,0    47    15:03    97    08:41  1020,9    1019    15:43    1022    00:13  0,0  1,2  12,2  
  02.09.2010  14,0    8,8    06:47    19,4    15:38  9,9    7,4    16:33    12,9    10:44  78,4    47    16:33    98    08:34  1019,7    1019    02:43    1020    00:00  0,0  1,0  12,2  
  03.09.2010  15,1    10,2    04:34    20,2    16:12  11,0    9,3    04:34    13,6    11:12  78,8    52    16:37    98    05:33  1020,1    1019    01:43    1022    10:13  0,0  0,8  11,9  
  04.09.2010  14,7    10,0    07:03    20,9    16:21  8,9    5,0    17:27    13,5    10:13  71,6    37    16:49    98    08:31  1020,4    1019    01:57    1022    20:42  0,0  1,7  16,6  
  05.09.2010  13,9    7,5    07:00    20,8    16:43  6,8    4,2    19:16    10,2    10:07  66,0    35    16:50    94    08:13  1021,6    1019    18:42    1023    07:57  0,0  0,8  11,5  
  06.09.2010  15,4    8,7    04:12    22,1    15:41  5,6    3,2    19:41    8,1    10:51  55,9    32    16:44    85    04:58  1016,6    1010    23:59    1022    00:27  0,0  2,5  23,0  
  07.09.2010  13,9    11,0    10:27    16,3    00:44  8,5    3,3    00:26    12,1    14:07  72,6    42    00:26    94    12:15  1006,8    1004    23:42    1010    00:00  4,8  3,3  20,5  
  08.09.2010  16,6    13,4    00:07    20,3    15:25  13,2    11,9    00:00    14,7    10:40  81,4    66    16:28    92    00:56  1003,1    1001    03:41    1006    21:56  0,0  2,4  20,9  
  09.09.2010  16,0    14,1    07:22    20,6    15:33  13,4    10,4    16:27    17,0    13:54  85,2    57    16:20    98    06:54  1012,0    1005    01:26    1018    21:11  5,5  2,3  19,8  
  10.09.2010  16,2    13,2    03:43    20,2    15:47  13,6    12,1    03:43    15,3    21:31  85,5    61    15:53    97    05:00  1020,0    1018    00:00    1022    10:56  0,9  1,1  14,0  
  11.09.2010  18,6    13,7    06:28    25,4    16:36  13,3    10,9    18:28    15,7    10:53  74,8    42    16:38    98    07:09  1018,5    1016    18:11    1020    00:11  0,0  1,5  9,7  
  12.09.2010  15,9    14,2    23:46    20,0    12:10  13,2    11,9    15:11    15,7    11:56  84,0    72    12:24    93    23:59  1019,1    1017    06:26    1023    23:10  0,0  1,3  15,5  
  13.09.2010  15,3    11,7    07:23    20,1    16:34  10,7    6,8    18:17    13,3    09:54  76,3    46    16:47    97    08:00  1024,7    1022    00:00    1026    09:10  0,0  2,0  16,2  
  14.09.2010  17,0    14,0    00:00    19,6    19:03  12,5    9,2    00:00    14,2    09:45  75,6    63    15:11    91    04:52  1018,2    1012    22:55    1024    00:00  0,0  2,5  22,0  
  15.09.2010  15,8    12,8    07:51    19,1    00:00  9,0    3,8    18:14    15,4    03:15  67,1    39    17:34    97    05:39  1010,6    1008    22:40    1013    10:10  3,9  4,2  23,8  
  16.09.2010  14,3    10,8    05:36    18,0    15:33  9,1    4,9    00:12    12,2    09:38  72,3    52    00:00    95    08:06  1009,6    1007    00:55    1011    07:25  1,0  2,7  22,3  
  17.09.2010  12,6    9,0    23:57    17,3    13:37  8,9    5,7    14:08    11,1    10:06  79,5    50    13:54    92    08:10  1013,3    1009    00:55    1018    23:59  1,8  2,4  18,0  
  18.09.2010  11,4    7,9    23:59    16,4    15:06  6,5    3,5    15:42    9,5    11:19  74,5    45    15:11    95    03:34  1018,4    1017    05:24    1019    23:59  0,0  1,2  11,2  
  19.09.2010  12,2    7,0    07:18    18,2    14:27  6,4    4,6    14:40    9,6    11:01  70,2    41    14:36    92    08:45  1018,3    1017    05:09    1019    00:00  0,0  1,3  20,9  
  20.09.2010  15,9    10,9    05:01    21,7    14:50  7,2    5,3    17:07    9,7    10:23  58,4    36    15:16    77    05:26  1016,4    1015    06:39    1018    00:00  0,0  2,0  15,8  
  21.09.2010  15,7    10,1    07:26    22,6    14:55  9,3    7,1    03:45    13,1    13:26  67,5    42    15:59    86    07:53  1020,5    1018    00:00    1023    22:39  0,0  0,7  9,7  
  22.09.2010  16,7    10,5    05:43    25,0    16:38  10,5    8,9    01:35    12,9    11:53  70,2    41    16:58    93    07:09  1019,7    1017    18:38    1022    00:00  0,0  1,3  11,9  
  23.09.2010  17,9    12,1    05:00    25,5    15:36  12,0    9,8    04:55    15,7    23:00  71,1    40    15:23    98    23:59  1011,6    1005    21:23    1017    00:00  13,5  1,6  16,2  
  24.09.2010  15,2    13,4    23:59    16,0    13:25  14,9    13,1    23:59    15,7    13:25  98,0    98    00:00    98    00:00  1002,1    1000    13:38    1006    00:00  6,4  0,6  7,9  
  25.09.2010  12,6    9,6    23:58    16,4    15:42  7,8    2,9    17:06    13,1    00:00  75,1    44    15:23    98    00:00  1006,3    1003    00:00    1008    11:53  0,0  4,0  20,2  
  26.09.2010  11,7    8,5    01:15    16,5    13:54  8,2    5,3    15:26    11,0    16:31  80,1    51    14:50    94    21:53  1008,0    1007    03:23    1010    20:07  2,1  1,1  15,1  
  27.09.2010  9,7    7,0    04:02    11,7    12:59  9,1    6,4    04:04    11,0    17:30  95,7    87    12:20    98    23:59  1011,7    1010    00:00    1014    21:37  6,6  0,4  6,8  
  28.09.2010  11,6    10,1    04:37    12,8    17:59  11,3    9,8    04:37    12,5    17:59  98,0    98    00:00    98    00:00  1015,9    1013    00:00    1019    23:59  4,9  1,3  10,1  
  29.09.2010  11,9    8,3    23:29    16,3    15:26  8,6    5,6    16:49    12,3    00:00  82,5    50    15:41    98    00:00  1019,1    1018    03:07    1021    10:37  0,9  0,9  10,4  
  30.09.2010  11,5    8,7    00:00    13,6    15:01  10,1    6,4    02:56    13,1    15:01  91,2    83    10:27    98    18:19  1015,7    1013    20:07    1018    00:00  3,9  0,9  12,2  
 
  Gesamt  14,4  7,0            25,5            10,0  2,9            17,0            77,1  32            98            1015,3  1000            1026            56,0  1,7  23,8  
 
  Mittelwert  14,4  10,5            19,1            10,0  7,2            12,9            77,1  53,2            94,6            1015,3  1012,6            1017,9            1,9  1,7  15,3  
  Minimum  9,7  7,0            11,7            5,6  2,9            8,1            55,9  32,0            77,0            1002,1  1000,0            1006,0            0,0  0,4  6,8  
  Maximum  18,6  14,2            25,5            14,9  13,1            17,0            98,0  98,0            98,0            1024,7  1022,0            1026,0            13,5  4,2  23,8  

  Heie Tage    Tmax >=30C     0  
  Sommertage    Tmax >=25C     3  
  Warme Tage    Tmax >=20C     14  
  Kalte Tage    Tmax  <10C     0  
  Frosttage    Tmin  <0C     0  
  Eistage    Tmax  <0C     0  
  Regentage > 0 mm    13  
  Regentage > 2 mm    9  
  Regentage > 10 mm    1  
  Regentage > 20 mm    0